Time;durP1;ratioP1;P1;durP2;ratioP2;P2;SDS_P1;SDS_P2;PMS_P1;PMS_P2;Temp;Humidity;BMP_temperature;BMP_pressure;BME280_temperature;BME280_humidity;BME280_pressure;Samples;Min_cycle;Max_cycle;Signal;HPM_P1;HPM_P2
2021/12/01 00:00:37;;;;;;;4.77;1.33;;;;;;;9.03;66.98;99921.97;4969201;28;97727;-90
2021/12/01 00:03:03;;;;;;;2.17;1.30;;;;;;;9.04;66.76;99937.94;4971378;28;97233;-89
2021/12/01 00:05:31;;;;;;;4.50;1.57;;;;;;;9.07;66.99;99912.25;4950581;28;97448;-90
2021/12/01 00:07:57;;;;;;;3.50;1.43;;;;;;;9.09;66.75;99898.03;4950589;28;97229;-91
2021/12/01 00:10:27;;;;;;;3.90;1.57;;;;;;;9.12;66.76;99893.53;4944484;28;97154;-91
2021/12/01 00:12:52;;;;;;;3.73;1.23;;;;;;;9.13;66.82;99889.56;4948609;28;100824;-90
2021/12/01 00:15:19;;;;;;;3.17;1.30;;;;;;;9.15;66.79;99879.59;4951124;28;96812;-91
2021/12/01 00:17:44;;;;;;;3.87;1.57;;;;;;;9.16;66.98;99870.09;4949757;28;97006;-90
2021/12/01 00:20:16;;;;;;;2.80;1.30;;;;;;;9.19;66.92;99879.31;4960502;28;98822;-90
2021/12/01 00:22:42;;;;;;;2.30;1.70;;;;;;;9.20;67.04;99867.06;4951171;28;96801;-89
2021/12/01 00:25:09;;;;;;;4.03;1.60;;;;;;;9.21;66.87;99858.34;4953325;28;96945;-89
2021/12/01 00:27:35;;;;;;;3.83;1.43;;;;;;;9.19;66.90;99843.63;4950790;28;96990;-89
2021/12/01 00:30:01;;;;;;;6.13;1.60;;;;;;;9.24;66.83;99851.84;4951734;28;99873;-89
2021/12/01 00:32:26;;;;;;;5.07;1.97;;;;;;;9.26;67.12;99843.84;4967549;28;97782;-89
2021/12/01 00:34:53;;;;;;;3.00;1.80;;;;;;;9.28;66.85;99840.63;4947135;28;96834;-89
2021/12/01 00:37:19;;;;;;;6.90;1.73;;;;;;;9.29;67.00;99831.13;4949267;28;97189;-88
2021/12/01 00:39:45;;;;;;;7.20;2.33;;;;;;;9.29;67.05;99825.66;4943875;28;97763;-89
2021/12/01 00:42:11;;;;;;;4.00;1.70;;;;;;;9.30;66.91;99813.44;4974077;28;97535;-88
2021/12/01 00:44:44;;;;;;;3.80;1.80;;;;;;;9.28;67.03;99824.16;4966375;28;97216;-87
2021/12/01 00:47:12;;;;;;;4.20;2.10;;;;;;;9.33;67.04;99809.66;4945702;28;96725;-88
2021/12/01 00:49:38;;;;;;;6.23;1.70;;;;;;;9.29;67.11;99809.94;4950198;28;96897;-88
2021/12/01 00:52:04;;;;;;;3.80;1.60;;;;;;;9.34;67.01;99820.16;4946455;28;96815;-88
2021/12/01 00:54:30;;;;;;;5.17;2.10;;;;;;;9.36;67.10;99787.47;4949210;28;96997;-89
2021/12/01 00:56:55;;;;;;;3.63;2.17;;;;;;;9.31;67.17;99803.94;4947447;28;96808;-87
2021/12/01 00:59:21;;;;;;;2.93;1.70;;;;;;;9.36;67.01;99790.19;4946060;28;97327;-87
2021/12/01 01:01:47;;;;;;;2.70;2.00;;;;;;;9.38;67.09;99773.97;4947916;28;97110;-88
2021/12/01 01:04:13;;;;;;;1.93;1.77;;;;;;;9.38;67.14;99760.25;4965165;28;97005;-87
2021/12/01 01:06:39;;;;;;;1.57;1.40;;;;;;;9.37;67.04;99756.00;4946391;28;97027;-87
2021/12/01 01:09:07;;;;;;;5.67;2.17;;;;;;;9.37;67.21;99756.00;4945495;28;97602;-87
2021/12/01 01:17:06;;;;;;;9.47;2.27;;;;;;;9.35;67.20;99727.59;4949353;28;97093;-88
2021/12/01 01:19:32;;;;;;;2.20;2.00;;;;;;;9.34;67.22;99724.09;4951590;28;101006;-86
2021/12/01 01:21:59;;;;;;;3.73;2.13;;;;;;;9.33;67.36;99711.59;4944032;28;97640;-88
2021/12/01 01:24:24;;;;;;;3.77;2.17;;;;;;;9.33;67.29;99702.63;4965214;28;96972;-89
2021/12/01 01:26:50;;;;;;;7.10;2.00;;;;;;;9.38;67.44;99701.84;4943451;28;97049;-89
2021/12/01 01:29:20;;;;;;;2.97;1.83;;;;;;;9.35;67.35;99706.34;4947335;28;97604;-87
2021/12/01 01:31:47;;;;;;;3.63;1.90;;;;;;;9.38;67.50;99691.63;4942540;28;98203;-87
2021/12/01 01:34:12;;;;;;;2.33;2.10;;;;;;;9.36;67.34;99671.44;4959099;28;96825;-87
2021/12/01 01:36:38;;;;;;;7.90;2.70;;;;;;;9.35;67.66;99673.41;4947958;28;96885;-88
2021/12/01 01:39:04;;;;;;;3.87;2.40;;;;;;;9.33;67.77;99666.94;4938536;28;98122;-89
2021/12/01 01:41:30;;;;;;;2.00;1.80;;;;;;;9.34;67.76;99671.94;4949219;28;96771;-88
2021/12/01 01:43:56;;;;;;;5.60;2.30;;;;;;;9.36;67.78;99650.22;4945521;28;96941;-88
2021/12/01 01:46:22;;;;;;;4.30;1.83;;;;;;;9.33;67.63;99678.69;4945704;28;97219;-88
2021/12/01 01:48:50;;;;;;;2.10;1.90;;;;;;;9.35;67.75;99651.47;4945663;28;97386;-88
2021/12/01 01:51:19;;;;;;;1.93;1.83;;;;;;;9.38;67.60;99639.47;4947226;28;96904;-87
2021/12/01 01:53:45;;;;;;;3.00;2.30;;;;;;;9.38;67.72;99644.97;4967151;28;97062;-86
2021/12/01 01:56:11;;;;;;;3.20;2.67;;;;;;;9.39;67.78;99629.25;4946086;28;97021;-87
2021/12/01 01:58:37;;;;;;;2.40;2.20;;;;;;;9.39;67.68;99616.25;4952327;28;99680;-87
2021/12/01 02:01:08;;;;;;;3.20;2.30;;;;;;;9.37;67.80;99629.75;4947335;28;97241;-89
2021/12/01 02:03:38;;;;;;;3.07;2.50;;;;;;;9.37;67.77;99610.53;4950026;28;96781;-88
2021/12/01 02:06:06;;;;;;;6.83;2.67;;;;;;;9.36;67.83;99600.81;4963178;28;96873;-88
2021/12/01 02:08:33;;;;;;;3.17;2.60;;;;;;;9.36;68.00;99589.09;4946758;28;97685;-86
2021/12/01 02:11:01;;;;;;;3.67;2.43;;;;;;;9.33;67.96;99585.34;4946102;28;96975;-90
2021/12/01 02:13:28;;;;;;;2.70;2.50;;;;;;;9.27;68.13;99592.13;4952329;28;96708;-88
2021/12/01 02:15:55;;;;;;;2.43;2.20;;;;;;;9.28;68.29;99582.66;4951576;28;96846;-86
2021/12/01 02:18:21;;;;;;;4.17;3.17;;;;;;;9.32;68.31;99574.91;4946840;28;99840;-85
2021/12/01 02:21:03;;;;;;;2.73;2.53;;;;;;;9.35;68.30;99557.44;4947124;28;98791;-85
2021/12/01 02:23:29;;;;;;;2.70;2.37;;;;;;;9.29;68.26;99548.47;4947830;28;97007;-87
2021/12/01 02:25:54;;;;;;;2.10;1.90;;;;;;;9.31;68.17;99548.69;4946221;28;96993;-87
2021/12/01 02:28:20;;;;;;;2.33;2.13;;;;;;;9.33;68.42;99543.44;4947507;28;96862;-86
2021/12/01 02:30:45;;;;;;;4.10;1.83;;;;;;;9.35;68.48;99538.22;4948308;28;96914;-85
2021/12/01 02:33:11;;;;;;;2.50;1.67;;;;;;;9.39;68.19;99505.75;4948516;28;96732;-86
2021/12/01 02:35:37;;;;;;;4.77;2.10;;;;;;;9.41;68.33;99531.44;4946166;28;97232;-84
2021/12/01 02:38:04;;;;;;;1.60;1.50;;;;;;;9.45;68.31;99495.44;4947698;28;99531;-84
2021/12/01 02:40:30;;;;;;;1.40;1.40;;;;;;;9.46;68.51;99491.44;4947947;28;97765;-85
2021/12/01 02:42:55;;;;;;;1.90;1.80;;;;;;;9.47;68.20;99477.22;4947683;28;97249;-85
2021/12/01 02:45:21;;;;;;;1.90;1.80;;;;;;;9.54;68.34;99478.66;4954808;28;96961;-85
2021/12/01 02:47:47;;;;;;;1.70;1.60;;;;;;;9.58;68.26;99479.13;4946109;28;97299;-85
2021/12/01 02:50:13;;;;;;;1.80;1.70;;;;;;;9.59;68.23;99469.59;4949151;28;96728;-85
2021/12/01 02:52:39;;;;;;;1.83;1.73;;;;;;;9.57;68.17;99467.38;4948550;28;97035;-86
2021/12/01 02:55:07;;;;;;;1.80;1.70;;;;;;;9.62;68.22;99468.59;4947705;28;97283;-85
2021/12/01 02:57:46;;;;;;;2.20;2.00;;;;;;;9.59;68.39;99453.13;4947434;28;97683;-86
2021/12/01 03:00:13;;;;;;;1.90;1.63;;;;;;;9.65;68.40;99432.59;4946387;28;97321;-86
2021/12/01 03:02:39;;;;;;;1.83;1.60;;;;;;;9.65;68.24;99423.63;4946571;28;96868;-87
2021/12/01 03:05:06;;;;;;;2.17;1.97;;;;;;;9.67;68.35;99413.63;4950469;28;97029;-86
2021/12/01 03:07:32;;;;;;;2.03;1.90;;;;;;;9.68;68.39;99412.34;4965026;28;97219;-86
2021/12/01 03:09:58;;;;;;;2.17;2.07;;;;;;;9.73;68.42;99410.81;4948465;28;97267;-86
2021/12/01 03:12:30;;;;;;;2.10;2.00;;;;;;;9.76;68.44;99396.06;4948354;28;96953;-86
2021/12/01 03:14:56;;;;;;;1.80;1.70;;;;;;;9.77;68.33;99387.28;4947300;28;97274;-86
2021/12/01 03:17:25;;;;;;;2.43;2.30;;;;;;;9.78;68.36;99377.06;4945177;28;97014;-86
2021/12/01 03:19:51;;;;;;;1.90;1.80;;;;;;;9.82;68.31;99396.72;4946739;28;96967;-86
2021/12/01 03:22:16;;;;;;;3.07;1.90;;;;;;;9.80;68.41;99375.28;4949451;28;96948;-87
2021/12/01 03:24:41;;;;;;;2.10;1.90;;;;;;;9.83;68.48;99362.50;4948353;28;96973;-86
2021/12/01 03:27:07;;;;;;;2.10;2.00;;;;;;;9.83;68.51;99363.25;4948428;28;97193;-85
2021/12/01 03:29:32;;;;;;;2.17;2.07;;;;;;;9.89;68.38;99359.69;4946833;28;97039;-87
2021/12/01 03:31:58;;;;;;;1.90;1.80;;;;;;;9.92;68.42;99355.91;4948457;28;97688;-86
2021/12/01 03:34:24;;;;;;;5.23;2.40;;;;;;;9.93;68.35;99336.16;4947822;28;97071;-86
2021/12/01 03:36:49;;;;;;;2.23;2.13;;;;;;;9.91;68.45;99338.69;4948507;28;101940;-87
2021/12/01 03:39:15;;;;;;;9.63;2.30;;;;;;;9.93;68.62;99343.66;4948311;28;97224;-86
2021/12/01 03:41:41;;;;;;;2.10;2.00;;;;;;;9.92;68.51;99326.44;4941110;28;97316;-87
2021/12/01 03:44:06;;;;;;;2.37;2.10;;;;;;;9.93;68.70;99322.44;4947435;28;97203;-88
2021/12/01 03:46:32;;;;;;;2.50;2.40;;;;;;;9.93;68.83;99325.19;4973655;28;97522;-90
2021/12/01 03:48:57;;;;;;;1.83;1.60;;;;;;;9.96;68.82;99346.09;4944821;28;97355;-88
2021/12/01 03:51:23;;;;;;;2.40;2.30;;;;;;;9.94;68.98;99326.66;4946772;28;96860;-89
2021/12/01 03:53:49;;;;;;;1.90;1.80;;;;;;;10.01;68.78;99306.06;4948133;28;96797;-88
2021/12/01 03:56:16;;;;;;;5.17;1.90;;;;;;;10.06;68.59;99281.28;4947221;28;97298;-87
2021/12/01 03:58:41;;;;;;;1.80;1.70;;;;;;;10.10;68.93;99284.47;4966301;28;99562;-87
2021/12/01 04:01:10;;;;;;;1.90;1.80;;;;;;;10.15;68.87;99271.94;4968084;28;97422;-87
2021/12/01 04:03:36;;;;;;;1.97;1.87;;;;;;;10.19;68.76;99267.63;4951116;28;96941;-88
2021/12/01 04:06:01;;;;;;;1.63;1.60;;;;;;;10.20;68.76;99266.34;4945366;28;97954;-89
2021/12/01 04:08:27;;;;;;;2.20;2.00;;;;;;;10.26;68.92;99260.78;4945582;28;96916;-87
2021/12/01 04:10:52;;;;;;;1.60;1.50;;;;;;;10.22;68.79;99280.31;4947848;28;97172;-89
2021/12/01 04:13:18;;;;;;;5.30;2.10;;;;;;;10.32;69.08;99250.44;4948003;28;96946;-89
2021/12/01 04:15:44;;;;;;;2.13;2.03;;;;;;;10.32;69.01;99240.19;4940651;28;98831;-89
2021/12/01 04:18:09;;;;;;;1.90;1.80;;;;;;;10.38;68.75;99240.84;4948769;28;97257;-87
2021/12/01 04:20:35;;;;;;;2.40;2.20;;;;;;;10.38;68.78;99251.84;4948461;28;97082;-87
2021/12/01 04:23:00;;;;;;;2.50;2.37;;;;;;;10.42;68.99;99238.53;4944442;28;97195;-89
2021/12/01 04:25:26;;;;;;;1.97;1.87;;;;;;;10.43;68.93;99229.00;4946904;28;96950;-88
2021/12/01 04:27:52;;;;;;;2.10;2.00;;;;;;;10.40;68.84;99238.31;4945399;28;99605;-88
2021/12/01 04:30:21;;;;;;;2.57;2.37;;;;;;;10.51;68.96;99201.63;4943342;28;97076;-88
2021/12/01 04:32:48;;;;;;;2.00;1.90;;;;;;;10.54;68.87;99203.34;4944588;28;97232;-88
2021/12/01 04:35:16;;;;;;;3.90;2.27;;;;;;;10.54;68.88;99187.59;4947820;28;97546;-87
2021/12/01 04:37:42;;;;;;;3.00;2.70;;;;;;;10.61;68.94;99191.72;4943649;28;103668;-87
2021/12/01 04:40:08;;;;;;;2.80;2.60;;;;;;;10.64;69.07;99211.94;4945747;28;96731;-88
2021/12/01 04:42:35;;;;;;;2.30;2.10;;;;;;;10.60;69.17;99201.22;4948125;28;96900;-89
2021/12/01 04:45:02;;;;;;;2.67;2.47;;;;;;;10.66;69.31;99185.34;4945792;28;97807;-88
2021/12/01 04:47:29;;;;;;;2.73;2.53;;;;;;;10.72;69.49;99172.25;4945644;28;96846;-88
2021/12/01 04:49:56;;;;;;;2.70;2.50;;;;;;;10.76;69.69;99164.44;4959885;28;97044;-87
2021/12/01 04:52:22;;;;;;;2.70;2.57;;;;;;;10.79;69.83;99157.84;4945693;28;97171;-87
2021/12/01 04:54:47;;;;;;;2.53;2.43;;;;;;;10.86;69.79;99162.72;4945720;28;97623;-87
2021/12/01 04:57:13;;;;;;;2.63;2.43;;;;;;;10.91;70.21;99148.13;4945297;28;98173;-86
2021/12/01 04:59:39;;;;;;;2.80;2.63;;;;;;;10.94;70.66;99152.53;4944935;28;97347;-88
2021/12/01 05:02:05;;;;;;;2.33;2.13;;;;;;;11.01;70.43;99142.91;4944921;28;97311;-89
2021/12/01 05:04:30;;;;;;;1.70;1.60;;;;;;;11.05;70.60;99135.09;4943133;28;97855;-84
2021/12/01 05:06:56;;;;;;;1.40;1.40;;;;;;;11.05;70.73;99157.81;4946884;28;97019;-86
2021/12/01 05:09:22;;;;;;;1.80;1.73;;;;;;;11.07;70.43;99124.28;4942164;28;97120;-88
2021/12/01 05:11:48;;;;;;;1.53;1.43;;;;;;;11.12;70.64;99123.41;4946136;28;97102;-86
2021/12/01 05:14:15;;;;;;;1.80;1.70;;;;;;;11.12;70.55;99115.16;4947493;28;98779;-88
2021/12/01 05:16:41;;;;;;;2.10;2.00;;;;;;;11.12;71.10;99113.16;4963436;28;98582;-88
2021/12/01 05:19:08;;;;;;;1.73;1.63;;;;;;;11.18;70.67;99104.78;4945130;28;97246;-86
2021/12/01 05:21:45;;;;;;;1.73;1.63;;;;;;;11.18;70.77;99091.03;4920028;28;96913;-85
2021/12/01 05:24:13;;;;;;;1.50;1.50;;;;;;;11.22;70.83;99107.94;4921569;28;98682;-84
2021/12/01 05:26:39;;;;;;;3.43;1.73;;;;;;;11.21;70.91;99092.69;4945326;28;97179;-84
2021/12/01 05:29:05;;;;;;;1.80;1.70;;;;;;;11.21;70.84;99082.44;4961874;28;96774;-88
2021/12/01 05:31:31;;;;;;;1.90;1.80;;;;;;;11.21;70.85;99076.19;4945759;28;97045;-86
2021/12/01 05:33:57;;;;;;;1.70;1.60;;;;;;;11.23;70.96;99065.38;4946719;28;97059;-85
2021/12/01 05:36:23;;;;;;;1.63;1.53;;;;;;;11.19;70.98;99082.22;4962622;28;97428;-87
2021/12/01 05:38:48;;;;;;;1.60;1.50;;;;;;;11.20;70.91;99056.16;4947445;28;96978;-87
2021/12/01 05:41:14;;;;;;;1.63;1.50;;;;;;;11.28;70.76;99059.00;4963883;28;96964;-84
2021/12/01 05:43:40;;;;;;;1.37;1.27;;;;;;;11.23;71.04;99074.38;4942699;28;101810;-86
2021/12/01 05:46:06;;;;;;;1.40;1.30;;;;;;;11.22;70.98;99058.41;4944254;28;99365;-88
2021/12/01 05:48:31;;;;;;;1.47;1.23;;;;;;;11.22;70.82;99044.66;4964139;28;96856;-87
2021/12/01 05:50:57;;;;;;;2.63;1.43;;;;;;;11.24;70.98;99056.59;4945110;28;96944;-88
2021/12/01 05:53:23;;;;;;;2.00;1.90;;;;;;;11.25;70.98;99046.31;4943936;28;97714;-85
2021/12/01 05:55:49;;;;;;;1.70;1.60;;;;;;;11.26;70.73;99042.28;4975472;28;98494;-85
2021/12/01 05:58:14;;;;;;;2.03;1.93;;;;;;;11.26;70.88;99056.81;4946591;28;97602;-88
2021/12/01 06:00:40;;;;;;;2.37;1.87;;;;;;;11.28;70.92;99039.75;4948522;28;97147;-87
2021/12/01 06:03:05;;;;;;;1.80;1.73;;;;;;;11.27;70.94;99038.25;4957436;28;98425;-87
2021/12/01 06:05:31;;;;;;;1.43;1.33;;;;;;;11.27;70.87;99046.50;4946718;28;99153;-86
2021/12/01 06:07:56;;;;;;;1.90;1.80;;;;;;;11.26;70.83;99023.03;4946684;28;96951;-87
2021/12/01 06:10:22;;;;;;;1.83;1.73;;;;;;;11.24;70.78;99004.31;4946749;28;96860;-87
2021/12/01 06:12:48;;;;;;;2.80;1.40;;;;;;;11.23;70.86;98994.56;4946485;28;97453;-86
2021/12/01 06:15:16;;;;;;;1.40;1.40;;;;;;;11.25;70.98;98994.00;4948404;28;99169;-87
2021/12/01 06:17:43;;;;;;;1.30;1.30;;;;;;;11.23;70.91;98980.03;4945868;28;97034;-84
2021/12/01 06:20:11;;;;;;;1.67;1.57;;;;;;;11.21;70.72;98980.59;4943953;28;97667;-88
2021/12/01 06:22:37;;;;;;;1.37;1.37;;;;;;;11.15;70.70;98974.50;4944580;28;98568;-87
2021/12/01 06:25:03;;;;;;;1.07;1.07;;;;;;;11.19;70.77;98974.16;4945211;28;99486;-84
2021/12/01 06:27:28;;;;;;;0.87;0.87;;;;;;;11.16;70.87;98967.69;4945070;28;97478;-86
2021/12/01 06:29:55;;;;;;;1.57;1.37;;;;;;;11.19;70.90;98965.88;4946037;28;97293;-88
2021/12/01 06:32:21;;;;;;;1.13;1.07;;;;;;;11.14;70.84;98953.75;4959447;28;98074;-85
2021/12/01 06:34:47;;;;;;;1.37;1.20;;;;;;;11.21;70.70;98947.56;4960883;28;97668;-87
2021/12/01 06:37:12;;;;;;;1.10;1.10;;;;;;;11.25;70.51;98953.47;4944804;28;97342;-85
2021/12/01 06:39:38;;;;;;;1.30;1.20;;;;;;;11.23;70.51;98953.28;4946377;28;96630;-86
2021/12/01 06:42:04;;;;;;;0.90;0.90;;;;;;;11.22;70.42;98943.56;4938712;28;97557;-85
2021/12/01 06:44:30;;;;;;;2.23;0.90;;;;;;;11.25;70.53;98949.97;4946098;28;97981;-87
2021/12/01 06:46:57;;;;;;;2.70;0.80;;;;;;;11.27;70.58;98923.38;4946931;28;96818;-87
2021/12/01 06:49:22;;;;;;;1.03;0.90;;;;;;;11.29;70.34;98907.06;4943900;28;96915;-89
2021/12/01 06:51:48;;;;;;;0.67;0.67;;;;;;;11.20;70.44;98904.06;4945882;28;99707;-88
2021/12/01 06:54:13;;;;;;;0.57;0.50;;;;;;;11.30;70.29;98943.59;4945649;28;97113;-86
2021/12/01 06:56:42;;;;;;;0.60;0.60;;;;;;;11.27;70.31;98900.63;4945736;28;96798;-87
2021/12/01 06:59:08;;;;;;;1.40;0.67;;;;;;;11.19;70.25;98924.59;4948786;28;96732;-85
2021/12/01 07:01:33;;;;;;;0.60;0.50;;;;;;;11.21;70.24;98891.78;4948748;28;97425;-88
2021/12/01 07:03:59;;;;;;;0.70;0.60;;;;;;;11.22;70.36;98894.00;4948622;28;96870;-86
2021/12/01 07:06:24;;;;;;;0.77;0.63;;;;;;;11.19;70.36;98897.81;4963246;28;97188;-87
2021/12/01 07:08:50;;;;;;;1.77;0.60;;;;;;;11.17;70.42;98894.13;4948055;28;97221;-89
2021/12/01 07:11:15;;;;;;;2.30;0.80;;;;;;;11.14;70.42;98884.94;4949060;28;97227;-88
2021/12/01 07:13:41;;;;;;;0.60;0.60;;;;;;;11.11;70.33;98872.28;4950223;28;97208;-87
2021/12/01 07:16:06;;;;;;;0.70;0.50;;;;;;;11.09;70.25;98857.56;4963022;28;97185;-85
2021/12/01 07:18:32;;;;;;;0.60;0.60;;;;;;;11.11;70.29;98868.78;4949255;28;97032;-88
2021/12/01 07:20:57;;;;;;;0.63;0.63;;;;;;;11.09;70.08;98863.81;4948962;28;97888;-85
2021/12/01 07:23:23;;;;;;;0.60;0.60;;;;;;;11.09;70.34;98841.06;4949180;28;98330;-88
2021/12/01 07:25:49;;;;;;;0.60;0.50;;;;;;;11.09;70.23;98843.81;4948726;28;97231;-87
2021/12/01 07:28:15;;;;;;;0.60;0.60;;;;;;;11.09;70.31;98841.06;4948404;28;96912;-88
2021/12/01 07:30:40;;;;;;;0.70;0.70;;;;;;;11.10;70.09;98824.00;4950652;28;97576;-84
2021/12/01 07:33:07;;;;;;;1.53;0.77;;;;;;;11.07;69.84;98832.63;4948145;28;97054;-88
2021/12/01 07:35:33;;;;;;;0.77;0.77;;;;;;;11.07;70.10;98829.84;4950699;28;96981;-86
2021/12/01 07:37:58;;;;;;;0.93;0.90;;;;;;;11.04;69.87;98815.16;4948887;28;96953;-88
2021/12/01 07:40:24;;;;;;;2.80;1.10;;;;;;;11.05;69.95;98810.41;4969974;28;96841;-86
2021/12/01 07:42:51;;;;;;;2.80;0.93;;;;;;;11.00;69.96;98814.03;4948524;28;98480;-86
2021/12/01 07:45:16;;;;;;;0.80;0.80;;;;;;;11.01;69.80;98845.75;4947219;28;97324;-86
2021/12/01 07:47:42;;;;;;;0.73;0.73;;;;;;;11.05;69.89;98816.63;4951234;28;97201;-88
2021/12/01 07:50:08;;;;;;;0.73;0.73;;;;;;;11.07;69.79;98814.06;4946818;28;99224;-87
2021/12/01 07:52:35;;;;;;;1.00;1.00;;;;;;;11.03;69.64;98791.66;4963905;28;96798;-85
2021/12/01 07:55:01;;;;;;;1.50;1.40;;;;;;;11.00;69.74;98792.75;4949616;28;96968;-88
2021/12/01 07:57:26;;;;;;;1.27;1.27;;;;;;;11.01;69.84;98788.72;4963904;28;96797;-87
2021/12/01 07:59:52;;;;;;;2.63;0.87;;;;;;;11.00;69.86;98789.25;4972504;28;98311;-87
2021/12/01 08:02:18;;;;;;;2.20;1.07;;;;;;;11.04;69.68;98782.16;4949852;28;97354;-86
2021/12/01 08:04:43;;;;;;;1.03;0.93;;;;;;;11.01;69.80;98774.97;4957392;28;97156;-87
2021/12/01 08:07:08;;;;;;;1.10;1.10;;;;;;;11.01;69.72;98771.47;4947652;28;97521;-87
2021/12/01 08:09:34;;;;;;;0.90;0.90;;;;;;;11.02;69.90;98764.69;4947271;28;97355;-88
2021/12/01 08:12:00;;;;;;;1.90;1.17;;;;;;;11.03;69.66;98763.44;4947424;28;99494;-85
2021/12/01 08:14:26;;;;;;;1.97;0.80;;;;;;;11.06;69.78;98754.06;4946830;28;97180;-88
2021/12/01 08:16:52;;;;;;;0.83;0.80;;;;;;;11.00;69.64;98773.50;4945410;28;97375;-88
2021/12/01 08:19:18;;;;;;;0.87;0.60;;;;;;;11.10;69.78;98735.94;4945522;28;97161;-87
2021/12/01 08:21:47;;;;;;;0.80;0.70;;;;;;;11.12;69.53;98733.38;4943808;28;98047;-86
2021/12/01 08:24:14;;;;;;;0.60;0.60;;;;;;;11.09;69.46;98731.75;4945722;28;96975;-86
2021/12/01 08:26:41;;;;;;;0.87;0.87;;;;;;;11.13;69.48;98726.63;4945665;28;97284;-86
2021/12/01 08:29:07;;;;;;;0.80;0.80;;;;;;;11.15;69.39;98773.59;4966357;28;97160;-87
2021/12/01 08:31:33;;;;;;;0.70;0.70;;;;;;;11.16;69.16;98722.03;4947514;28;97443;-85
2021/12/01 08:33:59;;;;;;;1.03;0.80;;;;;;;11.14;69.21;98735.59;4947354;28;97037;-87
2021/12/01 08:36:25;;;;;;;2.10;0.87;;;;;;;11.14;69.28;98719.81;4944881;28;96874;-89
2021/12/01 08:38:50;;;;;;;0.63;0.63;;;;;;;11.12;69.24;98711.38;4945298;28;99724;-87
2021/12/01 08:41:16;;;;;;;0.53;0.53;;;;;;;11.14;69.33;98721.84;4959965;28;97705;-88
2021/12/01 08:43:42;;;;;;;0.83;0.50;;;;;;;11.13;69.21;98723.13;4965304;28;103684;-88
2021/12/01 08:46:08;;;;;;;0.60;0.60;;;;;;;11.15;69.14;98709.56;4947964;28;97485;-86
2021/12/01 08:48:35;;;;;;;0.80;0.80;;;;;;;11.12;69.22;98705.13;4962576;28;98910;-87
2021/12/01 08:51:02;;;;;;;0.50;0.50;;;;;;;11.15;69.04;98690.28;4947131;28;96894;-86
2021/12/01 08:53:32;;;;;;;0.70;0.57;;;;;;;11.16;69.08;98705.53;4964297;28;97035;-87
2021/12/01 08:55:59;;;;;;;0.57;0.57;;;;;;;11.14;68.90;98719.06;4947968;28;97084;-86
2021/12/01 08:58:24;;;;;;;1.27;0.80;;;;;;;11.14;69.09;98697.06;4945702;28;99079;-86
2021/12/01 09:00:50;;;;;;;1.17;0.60;;;;;;;11.14;68.87;98697.81;4965202;28;97442;-86
2021/12/01 09:03:18;;;;;;;0.50;0.50;;;;;;;11.13;69.00;98703.88;4942563;28;96943;-90
2021/12/01 09:05:46;;;;;;;1.47;0.90;;;;;;;11.15;69.03;98682.03;4948619;28;97508;-88
2021/12/01 09:08:14;;;;;;;1.00;0.60;;;;;;;11.22;68.85;98667.56;4947023;28;99804;-88
2021/12/01 09:10:40;;;;;;;0.40;0.40;;;;;;;11.26;69.14;98671.44;4947603;28;96912;-88
2021/12/01 09:13:07;;;;;;;0.50;0.40;;;;;;;11.27;68.78;98661.91;4945360;28;96930;-87
2021/12/01 09:15:33;;;;;;;0.50;0.47;;;;;;;11.28;68.77;98684.66;4946407;28;97019;-87
2021/12/01 09:17:59;;;;;;;0.50;0.50;;;;;;;11.34;68.91;98665.97;4948048;28;100042;-87
2021/12/01 09:20:25;;;;;;;0.60;0.50;;;;;;;11.38;68.57;98657.38;4949502;28;96977;-88
2021/12/01 09:22:52;;;;;;;0.60;0.50;;;;;;;11.40;68.60;98647.25;4945102;28;97155;-86
2021/12/01 09:25:17;;;;;;;0.77;0.40;;;;;;;11.39;68.32;98628.53;4949658;28;96867;-87
2021/12/01 09:27:45;;;;;;;0.50;0.50;;;;;;;11.37;68.39;98640.09;4945748;28;97936;-85
2021/12/01 09:30:12;;;;;;;0.60;0.60;;;;;;;11.33;68.34;98643.19;4944836;28;97348;-87
2021/12/01 09:32:38;;;;;;;0.60;0.40;;;;;;;11.36;68.43;98635.16;4946001;28;96890;-88
2021/12/01 09:35:08;;;;;;;0.93;0.70;;;;;;;11.25;68.11;98658.22;4947560;28;97087;-87
2021/12/01 09:37:35;;;;;;;0.50;0.47;;;;;;;11.29;68.61;98636.59;4941520;28;97196;-85
2021/12/01 09:40:02;;;;;;;0.47;0.40;;;;;;;11.31;68.46;98636.78;4968455;28;97399;-87
2021/12/01 09:42:28;;;;;;;2.00;0.50;;;;;;;11.32;68.50;98627.97;4945546;28;97209;-87
2021/12/01 09:44:55;;;;;;;0.70;0.50;;;;;;;11.34;68.32;98621.91;4961384;28;96831;-87
2021/12/01 09:47:21;;;;;;;0.70;0.50;;;;;;;11.35;68.74;98628.91;4947827;28;97794;-87
2021/12/01 09:49:48;;;;;;;0.60;0.60;;;;;;;11.37;68.46;98614.59;4942008;28;100220;-86
2021/12/01 09:52:13;;;;;;;0.50;0.50;;;;;;;11.41;68.36;98612.22;4945250;28;96868;-87
2021/12/01 09:54:39;;;;;;;0.53;0.53;;;;;;;11.43;68.22;98593.13;4946404;28;97080;-88
2021/12/01 09:57:12;;;;;;;1.23;0.50;;;;;;;11.42;68.05;98583.41;4947430;28;97799;-87
2021/12/01 09:59:38;;;;;;;0.60;0.50;;;;;;;11.42;68.19;98589.66;4944357;28;98678;-87
2021/12/01 10:02:04;;;;;;;0.50;0.50;;;;;;;11.40;68.37;98589.44;4944891;28;96777;-87
2021/12/01 10:04:29;;;;;;;0.50;0.50;;;;;;;11.43;68.16;98571.84;4945532;28;97364;-86
2021/12/01 10:07:15;;;;;;;0.60;0.43;;;;;;;11.41;67.84;98577.16;4944463;28;97757;-89
2021/12/01 10:09:43;;;;;;;0.43;0.43;;;;;;;11.45;68.29;98554.75;4944940;28;100177;-87
2021/12/01 10:12:09;;;;;;;0.50;0.50;;;;;;;11.47;68.40;98547.44;4945225;28;97038;-87
2021/12/01 10:14:35;;;;;;;2.60;0.50;;;;;;;11.41;67.98;98557.16;4945674;28;97262;-84
2021/12/01 10:17:00;;;;;;;0.50;0.40;;;;;;;11.44;68.37;98543.03;4943988;28;97019;-87
2021/12/01 10:19:28;;;;;;;0.80;0.60;;;;;;;11.44;68.17;98534.78;4962084;28;97316;-86
2021/12/01 10:21:54;;;;;;;2.20;0.50;;;;;;;11.48;68.31;98526.16;4946537;28;97556;-87
2021/12/01 10:24:23;;;;;;;0.60;0.60;;;;;;;11.46;67.94;98517.69;4945096;28;96879;-86
2021/12/01 10:27:00;;;;;;;0.50;0.40;;;;;;;11.46;67.99;98521.19;4946064;28;100995;-88
2021/12/01 10:29:30;;;;;;;0.70;0.40;;;;;;;11.47;68.19;98519.16;4943874;28;102100;-87
2021/12/01 10:31:57;;;;;;;0.40;0.40;;;;;;;11.45;68.03;98514.22;4946218;28;96827;-87
2021/12/01 10:34:31;;;;;;;0.80;0.60;;;;;;;11.48;67.52;98512.38;4948961;28;97098;-85
2021/12/01 10:37:28;;;;;;;0.60;0.40;;;;;;;11.49;67.87;98492.56;4948420;28;102308;-88
2021/12/01 10:40:20;;;;;;;0.50;0.50;;;;;;;11.49;67.17;98495.31;4950911;28;102491;-87
2021/12/01 10:43:11;;;;;;;0.47;0.47;;;;;;;11.50;67.96;98487.78;4946239;28;97026;-89
2021/12/01 10:45:40;;;;;;;0.83;0.50;;;;;;;11.49;67.95;98487.03;4945897;28;96870;-87
2021/12/01 10:48:08;;;;;;;1.37;0.30;;;;;;;11.57;68.15;98468.53;4946312;28;96832;-86
2021/12/01 10:50:39;;;;;;;0.40;0.40;;;;;;;11.62;68.13;98458.59;4950316;28;98930;-86
2021/12/01 10:53:10;;;;;;;0.50;0.50;;;;;;;11.64;67.79;98456.03;4942015;28;97227;-90
2021/12/01 10:55:44;;;;;;;0.60;0.40;;;;;;;11.62;67.03;98451.06;4944494;28;97045;-87
2021/12/01 10:58:10;;;;;;;0.70;0.70;;;;;;;11.67;68.02;98441.91;4963512;28;98670;-86
2021/12/01 11:00:39;;;;;;;0.93;0.70;;;;;;;11.72;67.83;98429.22;4946265;28;97671;-85
2021/12/01 11:03:10;;;;;;;0.80;0.70;;;;;;;11.75;67.82;98423.34;4951276;28;97049;-87
2021/12/01 11:05:41;;;;;;;1.20;0.73;;;;;;;11.76;67.66;98432.34;4948614;28;96888;-85
2021/12/01 11:08:15;;;;;;;1.07;0.63;;;;;;;11.82;67.48;98417.09;4948846;28;96886;-87
2021/12/01 11:10:43;;;;;;;0.50;0.50;;;;;;;11.81;67.25;98398.38;4948901;28;97000;-88
2021/12/01 11:13:09;;;;;;;1.43;0.50;;;;;;;11.78;67.43;98400.22;4965358;28;97480;-86
2021/12/01 11:15:38;;;;;;;0.60;0.60;;;;;;;11.76;67.77;98402.78;4968320;28;97263;-87
2021/12/01 11:18:05;;;;;;;0.67;0.57;;;;;;;11.83;67.54;98395.78;4948900;28;101830;-88
2021/12/01 11:20:43;;;;;;;1.00;0.40;;;;;;;11.77;67.36;98400.78;4964740;28;98227;-86
2021/12/01 11:23:30;;;;;;;0.47;0.40;;;;;;;11.73;67.41;98387.34;4960515;28;97624;-88
2021/12/01 11:26:10;;;;;;;0.40;0.40;;;;;;;11.79;67.65;98389.94;4948496;28;97509;-86
2021/12/01 11:28:46;;;;;;;0.70;0.40;;;;;;;11.79;67.52;98376.91;4946064;28;100262;-88
2021/12/01 11:31:35;;;;;;;0.40;0.40;;;;;;;11.79;67.23;98382.41;4948126;28;97722;-88
2021/12/01 11:34:03;;;;;;;1.80;0.40;;;;;;;11.82;67.52;98361.25;4948505;28;96500;-89
2021/12/01 11:36:38;;;;;;;0.80;0.43;;;;;;;11.88;67.35;98367.31;4949929;28;96765;-88
2021/12/01 11:39:07;;;;;;;1.63;0.50;;;;;;;11.88;67.09;98356.28;4945683;28;98852;-89
2021/12/01 11:41:36;;;;;;;0.50;0.40;;;;;;;11.87;67.35;98374.84;4944780;28;97061;-90